sensor_id;sensor_type;location;lat;lon;timestamp;P1;durP1;ratioP1;P2;durP2;ratioP2
14619;SDS011;32125;48.518;9.050;2022-08-01T00:01:47;3.83;;;2.20;;
14619;SDS011;32125;48.518;9.050;2022-08-01T00:04:13;2.70;;;2.20;;
14619;SDS011;32125;48.518;9.050;2022-08-01T00:06:41;2.35;;;2.17;;
14619;SDS011;32125;48.518;9.050;2022-08-01T00:09:07;3.42;;;2.38;;
14619;SDS011;32125;48.518;9.050;2022-08-01T00:11:33;2.28;;;2.08;;
14619;SDS011;32125;48.518;9.050;2022-08-01T00:13:58;2.00;;;1.90;;
14619;SDS011;32125;48.518;9.050;2022-08-01T00:16:24;2.10;;;2.00;;
14619;SDS011;32125;48.518;9.050;2022-08-01T00:18:50;3.33;;;2.20;;
14619;SDS011;32125;48.518;9.050;2022-08-01T00:21:16;2.10;;;2.00;;
14619;SDS011;32125;48.518;9.050;2022-08-01T00:23:43;2.43;;;1.93;;
14619;SDS011;32125;48.518;9.050;2022-08-01T00:26:14;2.43;;;1.97;;
14619;SDS011;32125;48.518;9.050;2022-08-01T00:28:43;2.30;;;2.10;;
14619;SDS011;32125;48.518;9.050;2022-08-01T00:31:11;2.20;;;2.00;;
14619;SDS011;32125;48.518;9.050;2022-08-01T00:33:36;2.40;;;2.20;;
14619;SDS011;32125;48.518;9.050;2022-08-01T00:36:02;2.30;;;2.10;;
14619;SDS011;32125;48.518;9.050;2022-08-01T00:38:28;3.83;;;2.40;;
14619;SDS011;32125;48.518;9.050;2022-08-01T00:40:54;2.23;;;2.10;;
14619;SDS011;32125;48.518;9.050;2022-08-01T00:43:20;3.60;;;2.20;;
14619;SDS011;32125;48.518;9.050;2022-08-01T00:45:46;2.57;;;2.00;;
14619;SDS011;32125;48.518;9.050;2022-08-01T00:48:14;3.10;;;2.23;;
14619;SDS011;32125;48.518;9.050;2022-08-01T00:50:40;2.20;;;2.10;;
14619;SDS011;32125;48.518;9.050;2022-08-01T00:53:06;2.37;;;1.70;;
14619;SDS011;32125;48.518;9.050;2022-08-01T00:55:32;2.00;;;1.90;;
14619;SDS011;32125;48.518;9.050;2022-08-01T00:57:59;2.10;;;2.00;;
14619;SDS011;32125;48.518;9.050;2022-08-01T01:00:25;4.83;;;2.03;;
14619;SDS011;32125;48.518;9.050;2022-08-01T01:02:53;2.43;;;1.93;;
14619;SDS011;32125;48.518;9.050;2022-08-01T01:05:19;2.00;;;1.80;;
14619;SDS011;32125;48.518;9.050;2022-08-01T01:13:22;2.30;;;2.13;;
14619;SDS011;32125;48.518;9.050;2022-08-01T01:15:58;3.17;;;2.40;;
14619;SDS011;32125;48.518;9.050;2022-08-01T01:18:32;3.20;;;2.10;;
14619;SDS011;32125;48.518;9.050;2022-08-01T01:31:48;2.40;;;2.17;;
14619;SDS011;32125;48.518;9.050;2022-08-01T01:34:23;2.40;;;2.20;;
14619;SDS011;32125;48.518;9.050;2022-08-01T01:36:54;2.43;;;2.23;;
14619;SDS011;32125;48.518;9.050;2022-08-01T01:39:22;3.30;;;2.50;;
14619;SDS011;32125;48.518;9.050;2022-08-01T01:41:50;2.40;;;2.20;;
14619;SDS011;32125;48.518;9.050;2022-08-01T01:44:18;2.93;;;2.47;;
14619;SDS011;32125;48.518;9.050;2022-08-01T01:46:46;3.00;;;2.27;;
14619;SDS011;32125;48.518;9.050;2022-08-01T01:49:15;2.60;;;2.40;;
14619;SDS011;32125;48.518;9.050;2022-08-01T01:51:42;2.40;;;2.20;;
14619;SDS011;32125;48.518;9.050;2022-08-01T01:54:11;3.87;;;2.57;;
14619;SDS011;32125;48.518;9.050;2022-08-01T01:56:37;3.17;;;2.53;;
14619;SDS011;32125;48.518;9.050;2022-08-01T01:59:13;3.00;;;2.30;;
14619;SDS011;32125;48.518;9.050;2022-08-01T02:01:48;2.83;;;2.40;;
14619;SDS011;32125;48.518;9.050;2022-08-01T02:04:16;2.20;;;2.10;;
14619;SDS011;32125;48.518;9.050;2022-08-01T02:06:43;2.53;;;2.33;;
14619;SDS011;32125;48.518;9.050;2022-08-01T02:09:13;3.20;;;2.20;;
14619;SDS011;32125;48.518;9.050;2022-08-01T02:11:44;2.33;;;2.13;;
14619;SDS011;32125;48.518;9.050;2022-08-01T02:14:12;3.23;;;2.30;;
14619;SDS011;32125;48.518;9.050;2022-08-01T02:16:39;2.30;;;2.10;;
14619;SDS011;32125;48.518;9.050;2022-08-01T02:19:08;2.70;;;2.50;;
14619;SDS011;32125;48.518;9.050;2022-08-01T02:21:46;2.80;;;2.40;;
14619;SDS011;32125;48.518;9.050;2022-08-01T02:24:23;3.90;;;2.63;;
14619;SDS011;32125;48.518;9.050;2022-08-01T02:26:57;3.43;;;2.57;;
14619;SDS011;32125;48.518;9.050;2022-08-01T02:29:27;3.33;;;2.77;;
14619;SDS011;32125;48.518;9.050;2022-08-01T02:32:01;3.17;;;2.77;;
14619;SDS011;32125;48.518;9.050;2022-08-01T02:34:29;2.70;;;2.50;;
14619;SDS011;32125;48.518;9.050;2022-08-01T02:37:00;3.30;;;2.40;;
14619;SDS011;32125;48.518;9.050;2022-08-01T02:39:33;3.10;;;2.90;;
14619;SDS011;32125;48.518;9.050;2022-08-01T02:42:05;2.90;;;2.70;;
14619;SDS011;32125;48.518;9.050;2022-08-01T02:44:37;2.67;;;2.40;;
14619;SDS011;32125;48.518;9.050;2022-08-01T02:47:04;2.70;;;2.50;;
14619;SDS011;32125;48.518;9.050;2022-08-01T02:49:37;4.50;;;2.53;;
14619;SDS011;32125;48.518;9.050;2022-08-01T02:52:11;2.90;;;2.70;;
14619;SDS011;32125;48.518;9.050;2022-08-01T02:54:38;3.60;;;2.80;;
14619;SDS011;32125;48.518;9.050;2022-08-01T02:57:07;2.90;;;2.70;;
14619;SDS011;32125;48.518;9.050;2022-08-01T02:59:34;3.53;;;2.70;;
14619;SDS011;32125;48.518;9.050;2022-08-01T03:02:04;2.97;;;2.77;;
14619;SDS011;32125;48.518;9.050;2022-08-01T03:04:34;3.83;;;3.07;;
14619;SDS011;32125;48.518;9.050;2022-08-01T03:07:06;2.87;;;2.67;;
14619;SDS011;32125;48.518;9.050;2022-08-01T03:09:35;2.70;;;2.50;;
14619;SDS011;32125;48.518;9.050;2022-08-01T03:12:04;2.63;;;2.40;;
14619;SDS011;32125;48.518;9.050;2022-08-01T03:14:36;3.13;;;2.27;;
14619;SDS011;32125;48.518;9.050;2022-08-01T03:17:07;2.53;;;2.33;;
14619;SDS011;32125;48.518;9.050;2022-08-01T03:19:34;3.00;;;2.50;;
14619;SDS011;32125;48.518;9.050;2022-08-01T03:22:02;2.77;;;2.40;;
14619;SDS011;32125;48.518;9.050;2022-08-01T03:24:31;2.60;;;2.40;;
14619;SDS011;32125;48.518;9.050;2022-08-01T03:26:59;2.80;;;2.60;;
14619;SDS011;32125;48.518;9.050;2022-08-01T03:29:27;2.70;;;2.50;;
14619;SDS011;32125;48.518;9.050;2022-08-01T03:31:54;2.70;;;2.50;;
14619;SDS011;32125;48.518;9.050;2022-08-01T03:34:22;2.90;;;2.60;;
14619;SDS011;32125;48.518;9.050;2022-08-01T03:40:11;3.00;;;2.70;;
14619;SDS011;32125;48.518;9.050;2022-08-01T03:42:34;3.10;;;2.60;;
14619;SDS011;32125;48.518;9.050;2022-08-01T03:45:05;5.20;;;2.57;;
14619;SDS011;32125;48.518;9.050;2022-08-01T03:47:37;2.50;;;2.30;;
14619;SDS011;32125;48.518;9.050;2022-08-01T03:50:07;3.00;;;2.67;;
14619;SDS011;32125;48.518;9.050;2022-08-01T03:52:35;2.63;;;2.17;;
14619;SDS011;32125;48.518;9.050;2022-08-01T03:55:05;2.60;;;2.40;;
14619;SDS011;32125;48.518;9.050;2022-08-01T03:57:34;2.63;;;2.43;;
14619;SDS011;32125;48.518;9.050;2022-08-01T04:00:01;2.70;;;2.50;;
14619;SDS011;32125;48.518;9.050;2022-08-01T04:02:31;2.80;;;2.60;;
14619;SDS011;32125;48.518;9.050;2022-08-01T04:04:57;2.70;;;2.50;;
14619;SDS011;32125;48.518;9.050;2022-08-01T04:07:25;2.67;;;2.47;;
14619;SDS011;32125;48.518;9.050;2022-08-01T04:09:52;2.93;;;2.70;;
14619;SDS011;32125;48.518;9.050;2022-08-01T04:12:18;3.00;;;2.70;;
14619;SDS011;32125;48.518;9.050;2022-08-01T04:14:44;2.87;;;2.63;;
14619;SDS011;32125;48.518;9.050;2022-08-01T04:17:10;2.83;;;2.60;;
14619;SDS011;32125;48.518;9.050;2022-08-01T04:19:36;2.90;;;2.70;;
14619;SDS011;32125;48.518;9.050;2022-08-01T04:22:02;2.83;;;2.50;;
14619;SDS011;32125;48.518;9.050;2022-08-01T04:24:29;2.80;;;2.60;;
14619;SDS011;32125;48.518;9.050;2022-08-01T04:26:57;3.00;;;2.80;;
14619;SDS011;32125;48.518;9.050;2022-08-01T04:29:27;3.43;;;2.90;;
14619;SDS011;32125;48.518;9.050;2022-08-01T04:31:57;3.30;;;3.00;;
14619;SDS011;32125;48.518;9.050;2022-08-01T04:34:27;5.93;;;3.10;;
14619;SDS011;32125;48.518;9.050;2022-08-01T04:36:54;3.50;;;3.03;;
14619;SDS011;32125;48.518;9.050;2022-08-01T04:39:21;3.67;;;2.83;;
14619;SDS011;32125;48.518;9.050;2022-08-01T04:41:54;3.03;;;2.83;;
14619;SDS011;32125;48.518;9.050;2022-08-01T04:44:27;3.20;;;3.00;;
14619;SDS011;32125;48.518;9.050;2022-08-01T04:46:53;3.10;;;2.90;;
14619;SDS011;32125;48.518;9.050;2022-08-01T04:49:20;4.27;;;3.03;;
14619;SDS011;32125;48.518;9.050;2022-08-01T04:51:53;3.73;;;2.90;;
14619;SDS011;32125;48.518;9.050;2022-08-01T04:54:25;3.47;;;3.00;;
14619;SDS011;32125;48.518;9.050;2022-08-01T04:56:51;3.27;;;3.07;;
14619;SDS011;32125;48.518;9.050;2022-08-01T04:59:18;3.87;;;3.10;;
14619;SDS011;32125;48.518;9.050;2022-08-01T05:02:03;3.73;;;3.40;;
14619;SDS011;32125;48.518;9.050;2022-08-01T05:04:29;4.83;;;3.37;;
14619;SDS011;32125;48.518;9.050;2022-08-01T05:06:56;3.43;;;3.13;;
14619;SDS011;32125;48.518;9.050;2022-08-01T05:09:22;4.27;;;3.27;;
14619;SDS011;32125;48.518;9.050;2022-08-01T05:11:50;5.97;;;3.20;;
14619;SDS011;32125;48.518;9.050;2022-08-01T05:14:16;5.23;;;3.40;;
14619;SDS011;32125;48.518;9.050;2022-08-01T05:16:44;4.20;;;3.50;;
14619;SDS011;32125;48.518;9.050;2022-08-01T05:19:11;5.17;;;3.30;;
14619;SDS011;32125;48.518;9.050;2022-08-01T05:21:37;4.67;;;3.40;;
14619;SDS011;32125;48.518;9.050;2022-08-01T05:24:03;6.80;;;3.50;;
14619;SDS011;32125;48.518;9.050;2022-08-01T05:26:32;5.40;;;3.27;;
14619;SDS011;32125;48.518;9.050;2022-08-01T05:28:58;3.80;;;3.30;;
14619;SDS011;32125;48.518;9.050;2022-08-01T05:31:24;4.20;;;3.47;;
14619;SDS011;32125;48.518;9.050;2022-08-01T05:36:54;3.43;;;3.10;;
14619;SDS011;32125;48.518;9.050;2022-08-01T05:39:22;3.80;;;3.47;;
14619;SDS011;32125;48.518;9.050;2022-08-01T05:41:51;3.80;;;3.40;;
14619;SDS011;32125;48.518;9.050;2022-08-01T05:44:19;5.83;;;3.53;;
14619;SDS011;32125;48.518;9.050;2022-08-01T05:46:47;4.03;;;3.17;;
14619;SDS011;32125;48.518;9.050;2022-08-01T05:49:13;3.93;;;3.37;;
14619;SDS011;32125;48.518;9.050;2022-08-01T05:51:38;3.70;;;3.40;;
14619;SDS011;32125;48.518;9.050;2022-08-01T05:54:04;3.37;;;3.17;;
14619;SDS011;32125;48.518;9.050;2022-08-01T05:56:30;3.40;;;3.10;;
14619;SDS011;32125;48.518;9.050;2022-08-01T05:58:56;3.37;;;3.17;;
14619;SDS011;32125;48.518;9.050;2022-08-01T06:01:22;3.97;;;3.60;;
14619;SDS011;32125;48.518;9.050;2022-08-01T06:03:48;3.17;;;2.93;;
14619;SDS011;32125;48.518;9.050;2022-08-01T06:06:13;4.77;;;2.90;;
14619;SDS011;32125;48.518;9.050;2022-08-01T06:08:41;4.07;;;3.20;;
14619;SDS011;32125;48.518;9.050;2022-08-01T06:11:10;6.37;;;3.10;;
14619;SDS011;32125;48.518;9.050;2022-08-01T06:13:36;3.60;;;3.30;;
14619;SDS011;32125;48.518;9.050;2022-08-01T06:16:01;3.77;;;3.10;;
14619;SDS011;32125;48.518;9.050;2022-08-01T06:18:27;5.70;;;3.13;;
14619;SDS011;32125;48.518;9.050;2022-08-01T06:20:53;3.40;;;3.10;;
14619;SDS011;32125;48.518;9.050;2022-08-01T06:23:20;3.53;;;3.23;;
14619;SDS011;32125;48.518;9.050;2022-08-01T06:25:46;4.43;;;3.33;;
14619;SDS011;32125;48.518;9.050;2022-08-01T06:28:12;5.97;;;3.40;;
14619;SDS011;32125;48.518;9.050;2022-08-01T06:30:38;3.60;;;3.30;;
14619;SDS011;32125;48.518;9.050;2022-08-01T06:33:04;4.90;;;3.30;;
14619;SDS011;32125;48.518;9.050;2022-08-01T06:35:32;4.13;;;3.17;;
14619;SDS011;32125;48.518;9.050;2022-08-01T06:37:58;3.13;;;2.93;;
14619;SDS011;32125;48.518;9.050;2022-08-01T06:40:23;4.07;;;2.93;;
14619;SDS011;32125;48.518;9.050;2022-08-01T06:42:49;4.47;;;3.60;;
14619;SDS011;32125;48.518;9.050;2022-08-01T06:45:15;3.37;;;3.03;;
14619;SDS011;32125;48.518;9.050;2022-08-01T06:47:42;3.83;;;3.43;;
14619;SDS011;32125;48.518;9.050;2022-08-01T06:50:09;4.70;;;2.83;;
14619;SDS011;32125;48.518;9.050;2022-08-01T06:52:35;3.67;;;3.22;;
14619;SDS011;32125;48.518;9.050;2022-08-01T06:55:02;3.33;;;3.03;;
14619;SDS011;32125;48.518;9.050;2022-08-01T06:57:28;4.97;;;3.30;;
14619;SDS011;32125;48.518;9.050;2022-08-01T06:59:54;4.20;;;3.20;;
14619;SDS011;32125;48.518;9.050;2022-08-01T07:02:21;4.53;;;3.17;;
14619;SDS011;32125;48.518;9.050;2022-08-01T07:04:50;3.53;;;3.13;;
14619;SDS011;32125;48.518;9.050;2022-08-01T07:07:17;3.72;;;3.42;;
14619;SDS011;32125;48.518;9.050;2022-08-01T07:09:45;5.95;;;3.30;;
14619;SDS011;32125;48.518;9.050;2022-08-01T07:12:11;3.30;;;3.00;;
14619;SDS011;32125;48.518;9.050;2022-08-01T07:14:37;3.95;;;3.20;;
14619;SDS011;32125;48.518;9.050;2022-08-01T07:17:02;4.35;;;3.30;;
14619;SDS011;32125;48.518;9.050;2022-08-01T07:19:28;5.57;;;3.10;;
14619;SDS011;32125;48.518;9.050;2022-08-01T07:21:54;3.10;;;2.80;;
14619;SDS011;32125;48.518;9.050;2022-08-01T07:24:19;5.38;;;2.85;;
14619;SDS011;32125;48.518;9.050;2022-08-01T07:26:48;4.18;;;2.90;;
14619;SDS011;32125;48.518;9.050;2022-08-01T07:29:18;5.93;;;3.20;;
14619;SDS011;32125;48.518;9.050;2022-08-01T07:31:44;4.85;;;2.83;;
14619;SDS011;32125;48.518;9.050;2022-08-01T07:34:10;3.90;;;3.00;;
14619;SDS011;32125;48.518;9.050;2022-08-01T07:36:36;3.45;;;2.70;;
14619;SDS011;32125;48.518;9.050;2022-08-01T07:39:02;2.60;;;2.50;;
14619;SDS011;32125;48.518;9.050;2022-08-01T07:41:28;2.88;;;2.50;;
14619;SDS011;32125;48.518;9.050;2022-08-01T07:43:53;2.90;;;2.70;;
14619;SDS011;32125;48.518;9.050;2022-08-01T07:46:19;2.58;;;2.38;;
14619;SDS011;32125;48.518;9.050;2022-08-01T07:48:47;3.05;;;2.50;;
14619;SDS011;32125;48.518;9.050;2022-08-01T07:51:17;2.83;;;2.42;;
14619;SDS011;32125;48.518;9.050;2022-08-01T07:53:45;4.57;;;2.45;;
14619;SDS011;32125;48.518;9.050;2022-08-01T07:56:11;2.90;;;2.35;;
14619;SDS011;32125;48.518;9.050;2022-08-01T07:58:37;4.00;;;2.40;;
14619;SDS011;32125;48.518;9.050;2022-08-01T08:01:03;2.75;;;2.13;;
14619;SDS011;32125;48.518;9.050;2022-08-01T08:03:28;3.65;;;2.30;;
14619;SDS011;32125;48.518;9.050;2022-08-01T08:06:03;2.47;;;2.15;;
14619;SDS011;32125;48.518;9.050;2022-08-01T08:29:48;2.30;;;2.10;;
14619;SDS011;32125;48.518;9.050;2022-08-01T08:32:42;2.28;;;2.08;;
14619;SDS011;32125;48.518;9.050;2022-08-01T08:35:10;3.33;;;2.10;;
14619;SDS011;32125;48.518;9.050;2022-08-01T08:57:11;2.53;;;2.10;;
14619;SDS011;32125;48.518;9.050;2022-08-01T08:59:39;3.70;;;2.20;;
14619;SDS011;32125;48.518;9.050;2022-08-01T09:02:05;4.88;;;2.47;;
14619;SDS011;32125;48.518;9.050;2022-08-01T09:04:31;2.50;;;2.30;;
14619;SDS011;32125;48.518;9.050;2022-08-01T09:06:57;2.85;;;2.05;;
14619;SDS011;32125;48.518;9.050;2022-08-01T09:09:25;2.45;;;2.25;;
14619;SDS011;32125;48.518;9.050;2022-08-01T09:11:53;2.28;;;2.13;;
14619;SDS011;32125;48.518;9.050;2022-08-01T09:14:19;2.10;;;2.00;;
14619;SDS011;32125;48.518;9.050;2022-08-01T09:17:08;2.33;;;2.13;;
14619;SDS011;32125;48.518;9.050;2022-08-01T09:19:55;2.50;;;2.30;;
14619;SDS011;32125;48.518;9.050;2022-08-01T09:22:24;7.22;;;2.13;;
14619;SDS011;32125;48.518;9.050;2022-08-01T09:24:58;2.67;;;2.45;;
14619;SDS011;32125;48.518;9.050;2022-08-01T09:27:26;2.03;;;1.92;;
14619;SDS011;32125;48.518;9.050;2022-08-01T09:29:52;2.63;;;2.40;;
14619;SDS011;32125;48.518;9.050;2022-08-01T09:32:19;2.15;;;2.05;;
14619;SDS011;32125;48.518;9.050;2022-08-01T09:34:47;2.75;;;2.22;;
14619;SDS011;32125;48.518;9.050;2022-08-01T09:37:13;2.40;;;2.20;;
14619;SDS011;32125;48.518;9.050;2022-08-01T09:39:43;2.78;;;2.10;;
14619;SDS011;32125;48.518;9.050;2022-08-01T09:42:22;2.13;;;1.95;;
14619;SDS011;32125;48.518;9.050;2022-08-01T09:44:50;2.00;;;1.75;;
14619;SDS011;32125;48.518;9.050;2022-08-01T09:47:16;2.33;;;1.95;;
14619;SDS011;32125;48.518;9.050;2022-08-01T09:49:43;2.13;;;2.03;;
14619;SDS011;32125;48.518;9.050;2022-08-01T09:52:17;2.22;;;2.03;;
14619;SDS011;32125;48.518;9.050;2022-08-01T09:57:24;2.45;;;2.25;;
14619;SDS011;32125;48.518;9.050;2022-08-01T09:59:52;2.60;;;2.28;;
14619;SDS011;32125;48.518;9.050;2022-08-01T10:02:28;2.00;;;1.90;;
14619;SDS011;32125;48.518;9.050;2022-08-01T10:04:54;2.28;;;2.08;;
14619;SDS011;32125;48.518;9.050;2022-08-01T10:07:22;2.40;;;2.20;;
14619;SDS011;32125;48.518;9.050;2022-08-01T10:09:50;4.05;;;2.22;;
14619;SDS011;32125;48.518;9.050;2022-08-01T10:12:18;2.00;;;1.90;;
14619;SDS011;32125;48.518;9.050;2022-08-01T10:14:49;2.75;;;2.00;;
14619;SDS011;32125;48.518;9.050;2022-08-01T10:17:16;2.03;;;1.73;;
14619;SDS011;32125;48.518;9.050;2022-08-01T10:19:44;2.00;;;1.90;;
14619;SDS011;32125;48.518;9.050;2022-08-01T10:22:13;2.03;;;1.92;;
14619;SDS011;32125;48.518;9.050;2022-08-01T10:24:43;1.90;;;1.80;;
14619;SDS011;32125;48.518;9.050;2022-08-01T10:27:11;2.38;;;1.95;;
14619;SDS011;32125;48.518;9.050;2022-08-01T10:29:41;2.50;;;1.92;;
14619;SDS011;32125;48.518;9.050;2022-08-01T10:32:08;2.15;;;1.92;;
14619;SDS011;32125;48.518;9.050;2022-08-01T10:34:35;2.15;;;1.95;;
14619;SDS011;32125;48.518;9.050;2022-08-01T10:37:02;2.67;;;2.17;;
14619;SDS011;32125;48.518;9.050;2022-08-01T10:39:30;2.20;;;2.00;;
14619;SDS011;32125;48.518;9.050;2022-08-01T10:41:56;2.35;;;2.20;;
14619;SDS011;32125;48.518;9.050;2022-08-01T10:44:23;2.75;;;2.00;;
14619;SDS011;32125;48.518;9.050;2022-08-01T10:46:50;1.85;;;1.75;;
14619;SDS011;32125;48.518;9.050;2022-08-01T10:49:20;1.92;;;1.83;;
14619;SDS011;32125;48.518;9.050;2022-08-01T10:51:51;1.77;;;1.67;;
14619;SDS011;32125;48.518;9.050;2022-08-01T10:54:17;2.00;;;1.80;;
14619;SDS011;32125;48.518;9.050;2022-08-01T10:59:10;2.47;;;2.00;;
14619;SDS011;32125;48.518;9.050;2022-08-01T11:01:39;2.20;;;2.00;;
14619;SDS011;32125;48.518;9.050;2022-08-01T11:09:16;2.47;;;2.28;;
14619;SDS011;32125;48.518;9.050;2022-08-01T11:11:58;2.30;;;2.10;;
14619;SDS011;32125;48.518;9.050;2022-08-01T11:14:25;2.30;;;2.10;;
14619;SDS011;32125;48.518;9.050;2022-08-01T11:16:54;2.35;;;2.08;;
14619;SDS011;32125;48.518;9.050;2022-08-01T11:19:21;2.22;;;2.05;;
14619;SDS011;32125;48.518;9.050;2022-08-01T11:32:49;2.10;;;2.00;;
14619;SDS011;32125;48.518;9.050;2022-08-01T11:35:16;3.05;;;2.10;;
14619;SDS011;32125;48.518;9.050;2022-08-01T11:37:42;2.22;;;1.92;;
14619;SDS011;32125;48.518;9.050;2022-08-01T11:42:48;2.38;;;2.22;;
14619;SDS011;32125;48.518;9.050;2022-08-01T11:45:14;2.13;;;2.03;;
14619;SDS011;32125;48.518;9.050;2022-08-01T11:52:57;2.30;;;2.20;;
14619;SDS011;32125;48.518;9.050;2022-08-01T11:55:28;2.60;;;2.40;;
14619;SDS011;32125;48.518;9.050;2022-08-01T11:58:04;4.38;;;2.47;;
14619;SDS011;32125;48.518;9.050;2022-08-01T12:00:33;6.97;;;2.65;;
14619;SDS011;32125;48.518;9.050;2022-08-01T12:03:03;4.18;;;2.40;;
14619;SDS011;32125;48.518;9.050;2022-08-01T12:05:30;2.75;;;2.20;;
14619;SDS011;32125;48.518;9.050;2022-08-01T12:07:58;3.20;;;2.35;;
14619;SDS011;32125;48.518;9.050;2022-08-01T12:10:26;2.35;;;2.15;;
14619;SDS011;32125;48.518;9.050;2022-08-01T12:13:00;2.60;;;2.40;;
14619;SDS011;32125;48.518;9.050;2022-08-01T12:15:31;2.47;;;2.25;;
14619;SDS011;32125;48.518;9.050;2022-08-01T12:17:58;3.45;;;1.92;;
14619;SDS011;32125;48.518;9.050;2022-08-01T12:20:29;2.33;;;2.05;;
14619;SDS011;32125;48.518;9.050;2022-08-01T12:22:57;3.45;;;2.00;;
14619;SDS011;32125;48.518;9.050;2022-08-01T12:25:24;1.83;;;1.73;;
14619;SDS011;32125;48.518;9.050;2022-08-01T12:27:50;2.22;;;2.00;;
14619;SDS011;32125;48.518;9.050;2022-08-01T12:30:20;2.08;;;1.88;;
14619;SDS011;32125;48.518;9.050;2022-08-01T12:32:50;2.10;;;2.00;;
14619;SDS011;32125;48.518;9.050;2022-08-01T12:35:33;2.00;;;1.90;;
14619;SDS011;32125;48.518;9.050;2022-08-01T12:38:18;2.20;;;2.00;;
14619;SDS011;32125;48.518;9.050;2022-08-01T12:40:47;1.90;;;1.80;;
14619;SDS011;32125;48.518;9.050;2022-08-01T12:43:17;1.83;;;1.73;;
14619;SDS011;32125;48.518;9.050;2022-08-01T12:45:47;1.80;;;1.70;;
14619;SDS011;32125;48.518;9.050;2022-08-01T12:48:15;1.80;;;1.70;;
14619;SDS011;32125;48.518;9.050;2022-08-01T12:50:45;1.92;;;1.83;;
14619;SDS011;32125;48.518;9.050;2022-08-01T12:53:12;2.00;;;1.80;;
14619;SDS011;32125;48.518;9.050;2022-08-01T13:09:17;2.08;;;1.95;;
14619;SDS011;32125;48.518;9.050;2022-08-01T13:11:43;3.13;;;2.30;;
14619;SDS011;32125;48.518;9.050;2022-08-01T13:14:10;2.40;;;2.20;;
14619;SDS011;32125;48.518;9.050;2022-08-01T13:16:52;2.90;;;2.20;;
14619;SDS011;32125;48.518;9.050;2022-08-01T13:19:18;2.20;;;2.10;;
14619;SDS011;32125;48.518;9.050;2022-08-01T13:21:56;3.10;;;2.10;;
14619;SDS011;32125;48.518;9.050;2022-08-01T13:24:23;2.60;;;2.05;;
14619;SDS011;32125;48.518;9.050;2022-08-01T13:26:50;2.63;;;2.05;;
14619;SDS011;32125;48.518;9.050;2022-08-01T13:31:58;2.25;;;2.10;;
14619;SDS011;32125;48.518;9.050;2022-08-01T13:34:44;2.90;;;2.60;;
14619;SDS011;32125;48.518;9.050;2022-08-01T13:37:10;2.55;;;2.30;;
14619;SDS011;32125;48.518;9.050;2022-08-01T13:39:36;2.65;;;2.30;;
14619;SDS011;32125;48.518;9.050;2022-08-01T13:42:06;2.55;;;2.17;;
14619;SDS011;32125;48.518;9.050;2022-08-01T13:44:32;3.67;;;2.05;;
14619;SDS011;32125;48.518;9.050;2022-08-01T13:46:58;2.22;;;2.03;;
14619;SDS011;32125;48.518;9.050;2022-08-01T13:49:24;2.38;;;1.95;;
14619;SDS011;32125;48.518;9.050;2022-08-01T13:51:50;2.33;;;2.10;;
14619;SDS011;32125;48.518;9.050;2022-08-01T13:54:18;2.03;;;1.92;;
14619;SDS011;32125;48.518;9.050;2022-08-01T13:56:47;3.15;;;2.30;;
14619;SDS011;32125;48.518;9.050;2022-08-01T13:59:12;2.10;;;2.00;;
14619;SDS011;32125;48.518;9.050;2022-08-01T14:01:38;2.65;;;2.22;;
14619;SDS011;32125;48.518;9.050;2022-08-01T14:04:04;2.60;;;1.90;;
14619;SDS011;32125;48.518;9.050;2022-08-01T14:06:31;2.35;;;2.15;;
14619;SDS011;32125;48.518;9.050;2022-08-01T14:08:57;2.47;;;2.10;;
14619;SDS011;32125;48.518;9.050;2022-08-01T14:11:25;4.32;;;2.30;;
14619;SDS011;32125;48.518;9.050;2022-08-01T14:13:53;2.65;;;2.20;;
14619;SDS011;32125;48.518;9.050;2022-08-01T14:16:21;2.55;;;2.17;;
14619;SDS011;32125;48.518;9.050;2022-08-01T14:18:47;2.58;;;2.38;;
14619;SDS011;32125;48.518;9.050;2022-08-01T14:21:13;2.72;;;2.50;;
14619;SDS011;32125;48.518;9.050;2022-08-01T14:23:41;2.70;;;2.50;;
14619;SDS011;32125;48.518;9.050;2022-08-01T14:26:10;2.80;;;2.60;;
14619;SDS011;32125;48.518;9.050;2022-08-01T14:28:36;2.47;;;2.30;;
14619;SDS011;32125;48.518;9.050;2022-08-01T14:31:02;2.95;;;2.75;;
14619;SDS011;32125;48.518;9.050;2022-08-01T14:33:28;2.65;;;2.50;;
14619;SDS011;32125;48.518;9.050;2022-08-01T14:35:54;2.47;;;2.28;;
14619;SDS011;32125;48.518;9.050;2022-08-01T14:38:23;2.47;;;2.28;;
14619;SDS011;32125;48.518;9.050;2022-08-01T14:40:49;3.17;;;2.50;;
14619;SDS011;32125;48.518;9.050;2022-08-01T14:43:18;3.22;;;2.47;;
14619;SDS011;32125;48.518;9.050;2022-08-01T14:45:44;4.35;;;2.63;;
14619;SDS011;32125;48.518;9.050;2022-08-01T14:48:14;3.80;;;2.30;;
14619;SDS011;32125;48.518;9.050;2022-08-01T14:50:40;4.50;;;2.42;;
14619;SDS011;32125;48.518;9.050;2022-08-01T14:53:06;3.63;;;2.10;;
14619;SDS011;32125;48.518;9.050;2022-08-01T14:55:34;2.47;;;2.28;;
14619;SDS011;32125;48.518;9.050;2022-08-01T14:58:02;3.97;;;2.25;;
14619;SDS011;32125;48.518;9.050;2022-08-01T15:00:30;3.17;;;2.30;;
14619;SDS011;32125;48.518;9.050;2022-08-01T15:02:55;4.25;;;2.30;;
14619;SDS011;32125;48.518;9.050;2022-08-01T15:05:21;2.50;;;2.30;;
14619;SDS011;32125;48.518;9.050;2022-08-01T15:07:47;2.22;;;2.03;;
14619;SDS011;32125;48.518;9.050;2022-08-01T15:10:15;3.78;;;2.05;;
14619;SDS011;32125;48.518;9.050;2022-08-01T15:12:41;4.18;;;1.90;;
14619;SDS011;32125;48.518;9.050;2022-08-01T15:15:08;2.60;;;2.40;;
14619;SDS011;32125;48.518;9.050;2022-08-01T15:17:34;2.50;;;2.30;;
14619;SDS011;32125;48.518;9.050;2022-08-01T15:20:04;2.78;;;2.30;;
14619;SDS011;32125;48.518;9.050;2022-08-01T15:22:31;2.42;;;2.13;;
14619;SDS011;32125;48.518;9.050;2022-08-01T15:24:59;3.35;;;2.30;;
14619;SDS011;32125;48.518;9.050;2022-08-01T15:27:26;2.10;;;2.00;;
14619;SDS011;32125;48.518;9.050;2022-08-01T15:29:52;2.40;;;2.20;;
14619;SDS011;32125;48.518;9.050;2022-08-01T15:32:19;3.05;;;2.20;;
14619;SDS011;32125;48.518;9.050;2022-08-01T15:34:45;2.15;;;2.03;;
14619;SDS011;32125;48.518;9.050;2022-08-01T15:37:15;2.75;;;2.40;;
14619;SDS011;32125;48.518;9.050;2022-08-01T15:39:41;6.45;;;2.40;;
14619;SDS011;32125;48.518;9.050;2022-08-01T15:42:10;4.32;;;2.40;;
14619;SDS011;32125;48.518;9.050;2022-08-01T15:44:41;2.90;;;2.42;;
14619;SDS011;32125;48.518;9.050;2022-08-01T15:47:10;3.67;;;2.38;;
14619;SDS011;32125;48.518;9.050;2022-08-01T15:49:36;2.58;;;2.38;;
14619;SDS011;32125;48.518;9.050;2022-08-01T15:52:05;2.97;;;2.58;;
14619;SDS011;32125;48.518;9.050;2022-08-01T15:54:32;2.63;;;2.22;;
14619;SDS011;32125;48.518;9.050;2022-08-01T15:56:58;3.88;;;2.40;;
14619;SDS011;32125;48.518;9.050;2022-08-01T15:59:24;3.35;;;2.50;;
14619;SDS011;32125;48.518;9.050;2022-08-01T16:01:52;4.40;;;2.40;;
14619;SDS011;32125;48.518;9.050;2022-08-01T16:04:18;4.38;;;3.10;;
14619;SDS011;32125;48.518;9.050;2022-08-01T16:06:45;4.88;;;2.67;;
14619;SDS011;32125;48.518;9.050;2022-08-01T16:09:11;3.40;;;2.72;;
14619;SDS011;32125;48.518;9.050;2022-08-01T16:11:37;3.53;;;2.47;;
14619;SDS011;32125;48.518;9.050;2022-08-01T16:14:05;4.07;;;2.53;;
14619;SDS011;32125;48.518;9.050;2022-08-01T16:16:31;2.78;;;2.40;;
14619;SDS011;32125;48.518;9.050;2022-08-01T16:18:57;2.53;;;2.30;;
14619;SDS011;32125;48.518;9.050;2022-08-01T16:21:23;5.40;;;2.45;;
14619;SDS011;32125;48.518;9.050;2022-08-01T16:23:49;3.13;;;2.58;;
14619;SDS011;32125;48.518;9.050;2022-08-01T16:26:16;2.58;;;2.38;;
14619;SDS011;32125;48.518;9.050;2022-08-01T16:28:42;3.60;;;2.53;;
14619;SDS011;32125;48.518;9.050;2022-08-01T16:31:14;3.65;;;2.50;;
14619;SDS011;32125;48.518;9.050;2022-08-01T16:33:40;3.97;;;2.70;;
14619;SDS011;32125;48.518;9.050;2022-08-01T16:36:07;2.92;;;2.50;;
14619;SDS011;32125;48.518;9.050;2022-08-01T16:38:36;3.30;;;2.40;;
14619;SDS011;32125;48.518;9.050;2022-08-01T16:41:02;3.47;;;2.50;;
14619;SDS011;32125;48.518;9.050;2022-08-01T16:43:28;2.70;;;2.42;;